Date,TemperatureHighF,TemperatureAvgF,TemperatureLowF,DewpointHighF,DewpointAvgF,DewpointLowF,HumidityHigh,HumidityAvg,HumidityLow,PressureMaxIn,PressureMinIn,WindSpeedMaxMPH,WindSpeedAvgMPH,GustSpeedMaxMPH,PrecipitationSumIn
2013-3-1,63,50,34,28,24,18,63,39,18,30.30,30.13,18,7,23,0.00
2013-3-2,59,45,32,29,27,22,81,51,30,30.43,30.25,18,9,22,0.00
2013-3-3,73,55,36,42,30,24,63,42,21,30.25,29.86,25,16,31,0.00
2013-3-4,86,68,54,48,42,33,74,44,15,29.86,29.67,24,15,30,0.00
2013-3-5,70,52,40,47,22,5,65,35,11,30.38,29.73,29,16,36,0.00
2013-3-6,60,46,32,22,17,10,52,33,14,30.46,30.21,12,6,15,0.00
2013-3-7,69,55,40,52,38,19,77,55,37,30.25,30.08,20,10,25,0.00
2013-3-8,62,58,53,61,55,50,98,90,75,30.16,30.00,17,10,22,0.05
2013-3-9,70,64,58,65,62,57,97,90,81,30.00,29.65,33,16,33,0.09
2013-3-10,58,54,45,57,40,31,97,60,39,30.12,29.76,34,12,34,0.65
2013-3-11,62,48,34,32,26,17,75,47,23,30.18,30.01,21,7,21,0.00
2013-3-12,77,56,38,39,33,27,71,45,16,30.28,30.05,28,9,28,0.00
2013-3-13,72,58,45,39,35,31,60,45,27,30.45,30.27,21,7,21,0.00
2013-3-14,68,54,47,50,43,38,84,68,48,30.37,30.28,26,11,26,0.00
2013-3-16,81,75,66,60,55,50,81,51,35,29.88,29.72,28,21,36,0.00
2013-3-17,81,70,63,60,58,54,85,69,40,29.81,29.66,26,10,36,0.00
2013-3-18,78,68,58,64,53,43,96,63,30,29.96,29.71,17,11,21,0.00
2013-3-19,77,60,47,59,50,41,85,69,52,30.07,29.86,19,7,23,0.25
2013-3-20,66,56,46,52,42,28,95,63,25,30.26,30.04,21,9,23,0.11
2013-3-21,73,61,49,59,50,37,83,67,54,30.04,29.59,29,15,33,0.00
2013-3-22,74,64,49,63,56,44,91,78,54,29.80,29.61,20,11,28,0.00
2013-3-23,74,56,46,61,51,44,97,85,55,29.82,29.60,11,6,12,0.00
2013-3-24,56,46,38,55,30,22,97,56,30,30.17,29.69,27,16,31,0.00
2013-3-25,55,43,31,24,20,14,65,42,20,30.40,30.17,14,7,16,0.00
2013-3-26,61,47,34,27,21,16,54,37,18,30.49,30.27,9,4,12,0.00
2013-3-27,67,53,37,46,36,24,69,53,40,30.31,30.12,22,11,26,0.00
2013-3-28,71,60,50,58,53,45,91,78,61,30.20,30.10,21,12,26,0.00
2013-3-29,74,66,57,58,56,55,95,73,52,30.18,30.05,20,13,26,0.00
2013-3-30,79,69,62,62,59,56,88,73,52,30.10,29.88,17,11,21,0.00
2013-3-31,76,68,61,66,63,56,92,84,66,29.99,29.87,19,9,25,0.07